createdAt,value
2019-03-29T00:01:42.283Z,90.90
2019-03-29T00:04:10.823Z,91.00
2019-03-29T00:06:39.386Z,90.50
2019-03-29T00:09:08.257Z,91.30
2019-03-29T00:11:36.787Z,91.10
2019-03-29T00:14:08.257Z,91.10
2019-03-29T00:16:36.716Z,90.70
2019-03-29T00:19:05.203Z,90.60
2019-03-29T00:21:33.688Z,90.80
2019-03-29T00:24:06.861Z,90.80
2019-03-29T00:26:32.445Z,90.90
2019-03-29T00:29:00.993Z,90.90
2019-03-29T00:31:29.464Z,90.70
2019-03-29T00:33:57.968Z,90.70
2019-03-29T00:36:26.450Z,90.80
2019-03-29T00:38:55.016Z,90.90
2019-03-29T00:41:23.587Z,90.70
2019-03-29T00:43:52.922Z,90.80
2019-03-29T00:46:21.397Z,90.70
2019-03-29T00:48:49.890Z,90.50
2019-03-29T00:51:18.449Z,90.40
2019-03-29T00:53:47.052Z,90.40
2019-03-29T00:56:17.140Z,90.50
2019-03-29T00:58:45.684Z,90.40
2019-03-29T01:01:14.181Z,90.40
2019-03-29T01:03:42.721Z,90.50
2019-03-29T01:06:11.293Z,90.30
2019-03-29T01:08:39.763Z,90.20
2019-03-29T01:11:08.272Z,90.40
2019-03-29T01:13:36.752Z,90.30
2019-03-29T01:16:05.238Z,90.30
2019-03-29T01:18:33.727Z,90.30
2019-03-29T01:21:02.318Z,90.50
2019-03-29T01:23:30.852Z,90.30
2019-03-29T01:25:59.416Z,90.50
2019-03-29T01:28:27.915Z,90.60
2019-03-29T01:30:56.467Z,90.40
2019-03-29T01:33:25.054Z,90.60
2019-03-29T01:35:53.887Z,90.50
2019-03-29T01:38:24.369Z,90.50
2019-03-29T01:40:52.684Z,90.50
2019-03-29T01:43:21.163Z,90.60
2019-03-29T01:45:49.745Z,90.50
2019-03-29T01:48:18.296Z,90.60
2019-03-29T01:50:46.776Z,90.70
2019-03-29T01:53:15.242Z,90.60
2019-03-29T01:55:43.753Z,90.60
2019-03-29T01:58:12.232Z,90.70
2019-03-29T02:00:40.727Z,90.70
2019-03-29T02:03:09.268Z,90.60
2019-03-29T02:05:37.766Z,90.90
2019-03-29T02:08:06.289Z,90.60
2019-03-29T02:10:34.782Z,90.80
2019-03-29T02:13:03.396Z,90.70
2019-03-29T02:15:31.955Z,90.70
2019-03-29T02:18:00.439Z,90.70
2019-03-29T02:20:28.920Z,90.60
2019-03-29T02:22:57.398Z,90.50
2019-03-29T02:25:25.924Z,90.60
2019-03-29T02:27:54.459Z,90.70
2019-03-29T02:30:22.941Z,90.70
2019-03-29T02:32:51.808Z,90.60
2019-03-29T02:35:21.447Z,90.70
2019-03-29T02:37:49.999Z,90.70
2019-03-29T02:40:18.506Z,91.30
2019-03-29T02:42:47.064Z,90.90
2019-03-29T02:45:15.713Z,91.20
2019-03-29T02:47:44.261Z,90.80
2019-03-29T02:50:16.150Z,90.80
2019-03-29T02:52:44.687Z,90.90
2019-03-29T02:55:13.545Z,91.00
2019-03-29T02:57:42.083Z,90.90
2019-03-29T03:00:11.723Z,91.00
2019-03-29T03:02:40.266Z,91.20
2019-03-29T03:05:10.076Z,91.10
2019-03-29T03:07:38.549Z,90.90
2019-03-29T03:10:10.637Z,91.10
2019-03-29T03:12:39.217Z,91.10
2019-03-29T03:15:08.663Z,90.80
2019-03-29T03:17:38.047Z,91.00
2019-03-29T03:20:14.733Z,90.70
2019-03-29T03:22:40.074Z,90.80
2019-03-29T03:25:09.152Z,90.70
2019-03-29T03:27:37.719Z,90.50
2019-03-29T03:30:13.293Z,90.70
2019-03-29T03:32:41.823Z,90.80
2019-03-29T03:35:11.944Z,90.90
2019-03-29T03:37:40.597Z,91.00
2019-03-29T03:40:09.798Z,91.00
2019-03-29T03:42:38.313Z,90.80
2019-03-29T03:45:08.492Z,90.70
2019-03-29T03:47:39.408Z,90.80
2019-03-29T03:50:10.033Z,90.70
2019-03-29T03:52:38.545Z,91.40
2019-03-29T03:55:07.374Z,90.90
2019-03-29T03:57:37.940Z,91.00
2019-03-29T04:00:08.235Z,91.30
2019-03-29T04:02:36.862Z,91.00
2019-03-29T04:05:06.367Z,90.80
2019-03-29T04:07:34.913Z,91.00
2019-03-29T04:10:04.282Z,90.60
2019-03-29T04:12:32.838Z,90.80
2019-03-29T04:15:01.325Z,90.80
2019-03-29T04:17:29.869Z,90.90
2019-03-29T04:19:58.334Z,90.60
2019-03-29T04:22:26.854Z,90.70
2019-03-29T04:24:55.823Z,90.90
2019-03-29T04:27:24.313Z,91.60
2019-03-29T04:29:52.795Z,91.00
2019-03-29T04:32:21.324Z,91.20
2019-03-29T04:34:49.879Z,90.90
2019-03-29T04:37:18.437Z,90.80
2019-03-29T04:39:46.989Z,91.00
2019-03-29T04:42:15.473Z,90.90
2019-03-29T04:44:43.952Z,91.20
2019-03-29T04:47:12.518Z,91.10
2019-03-29T04:49:41.056Z,90.90
2019-03-29T04:52:09.575Z,90.90
2019-03-29T04:54:38.035Z,90.80
2019-03-29T04:57:06.531Z,91.00
2019-03-29T04:59:35.025Z,90.90
2019-03-29T05:02:03.598Z,90.80
2019-03-29T05:04:32.140Z,90.80
2019-03-29T05:07:00.643Z,90.60
2019-03-29T05:09:29.183Z,90.70
2019-03-29T05:11:57.754Z,90.60
2019-03-29T05:14:26.222Z,90.80
2019-03-29T05:16:54.740Z,90.70
2019-03-29T05:19:23.298Z,90.70
2019-03-29T05:21:51.875Z,90.80
2019-03-29T05:24:20.423Z,90.70
2019-03-29T05:26:48.894Z,90.60
2019-03-29T05:29:17.406Z,90.70
2019-03-29T05:31:45.890Z,90.70
2019-03-29T05:34:14.473Z,90.70
2019-03-29T05:36:43.003Z,91.00
2019-03-29T05:39:11.491Z,90.80
2019-03-29T05:41:40.048Z,90.80
2019-03-29T05:44:08.624Z,91.00
2019-03-29T05:46:37.184Z,91.40
2019-03-29T05:49:05.767Z,91.80
2019-03-29T05:51:34.228Z,91.90
2019-03-29T05:54:02.799Z,91.30
2019-03-29T05:56:31.377Z,91.10
2019-03-29T05:58:59.929Z,91.50
2019-03-29T06:01:28.481Z,91.10
2019-03-29T06:03:56.985Z,91.10
2019-03-29T06:06:25.544Z,90.80
2019-03-29T06:08:54.168Z,90.80
2019-03-29T06:11:22.773Z,91.00
2019-03-29T06:13:51.312Z,91.00
2019-03-29T06:16:19.847Z,91.40
2019-03-29T06:18:48.640Z,91.00
2019-03-29T06:21:17.213Z,91.10
2019-03-29T06:23:45.951Z,91.10
2019-03-29T06:26:14.496Z,90.80
2019-03-29T06:28:43.040Z,91.00
2019-03-29T06:31:11.559Z,90.80
2019-03-29T06:33:40.064Z,90.70
2019-03-29T06:36:10.179Z,90.90
2019-03-29T06:38:40.375Z,90.70
2019-03-29T06:41:08.946Z,90.90
2019-03-29T06:43:37.531Z,91.00
2019-03-29T06:46:06.008Z,90.80
2019-03-29T06:48:34.513Z,91.00
2019-03-29T06:51:02.987Z,90.80
2019-03-29T06:53:33.016Z,90.90
2019-03-29T06:56:01.538Z,91.00
2019-03-29T06:58:30.150Z,90.90
2019-03-29T07:00:58.654Z,90.70
2019-03-29T07:03:27.213Z,90.90
2019-03-29T07:05:55.788Z,90.80
2019-03-29T07:08:24.269Z,90.80
2019-03-29T07:10:57.548Z,90.60
2019-03-29T07:13:26.032Z,90.60
2019-03-29T07:15:54.609Z,90.60
2019-03-29T07:18:23.161Z,90.60
2019-03-29T07:20:51.676Z,90.70
2019-03-29T07:23:20.158Z,90.40
2019-03-29T07:25:49.491Z,90.40
2019-03-29T07:28:18.039Z,90.40
2019-03-29T07:30:46.639Z,90.50
2019-03-29T07:33:15.174Z,90.60
2019-03-29T07:35:43.764Z,90.40
2019-03-29T07:38:12.304Z,90.40
2019-03-29T07:40:40.813Z,90.20
2019-03-29T07:43:09.306Z,90.30
2019-03-29T07:45:37.875Z,90.30
2019-03-29T07:48:06.346Z,90.20
2019-03-29T07:50:34.842Z,90.30
2019-03-29T07:53:03.388Z,90.40
2019-03-29T07:55:31.892Z,90.40
2019-03-29T07:58:00.572Z,90.20
2019-03-29T08:00:29.178Z,90.20
2019-03-29T08:02:57.701Z,90.10
2019-03-29T08:05:26.204Z,90.20
2019-03-29T08:07:54.671Z,90.10
2019-03-29T08:10:26.120Z,90.10
2019-03-29T08:12:53.380Z,90.10
2019-03-29T08:15:21.896Z,90.00
2019-03-29T08:17:50.446Z,90.10
2019-03-29T08:20:40.253Z,90.00
2019-03-29T08:22:49.289Z,90.00
2019-03-29T08:25:17.834Z,89.90
2019-03-29T08:27:46.390Z,90.00
2019-03-29T08:30:15.125Z,89.90
2019-03-29T08:32:43.817Z,90.00
2019-03-29T08:35:12.368Z,89.80
2019-03-29T08:37:40.931Z,89.40
2019-03-29T08:40:09.787Z,89.40
2019-03-29T08:42:38.274Z,89.20
2019-03-29T08:45:07.195Z,88.40
2019-03-29T08:47:35.780Z,89.10
2019-03-29T08:50:06.588Z,88.80
2019-03-29T08:52:35.100Z,87.80
2019-03-29T08:55:04.922Z,88.50
2019-03-29T08:57:33.507Z,88.00
2019-03-29T09:00:02.034Z,87.60
2019-03-29T09:02:30.603Z,88.00
2019-03-29T09:04:59.073Z,87.80
2019-03-29T09:07:28.148Z,88.00
2019-03-29T09:09:56.851Z,87.50
2019-03-29T09:12:25.376Z,88.00
2019-03-29T09:14:53.906Z,87.70
2019-03-29T09:17:22.475Z,87.50
2019-03-29T09:19:51.029Z,87.60
2019-03-29T09:22:19.614Z,87.30
2019-03-29T09:24:48.153Z,86.90
2019-03-29T09:27:16.735Z,86.50
2019-03-29T09:29:45.213Z,86.70
2019-03-29T09:32:13.785Z,85.70
2019-03-29T09:34:42.258Z,85.80
2019-03-29T09:37:10.886Z,86.80
2019-03-29T09:39:39.361Z,85.70
2019-03-29T09:42:10.908Z,85.70
2019-03-29T09:44:39.380Z,85.00
2019-03-29T09:47:07.917Z,83.40
2019-03-29T09:49:36.454Z,84.60
2019-03-29T09:52:04.973Z,83.70
2019-03-29T09:54:33.475Z,83.50
2019-03-29T09:57:02.055Z,84.20
2019-03-29T09:59:30.596Z,83.80
2019-03-29T10:01:59.119Z,82.90
2019-03-29T10:04:27.723Z,84.00
2019-03-29T10:06:56.218Z,82.70
2019-03-29T10:09:24.808Z,83.60
2019-03-29T10:11:53.347Z,83.70
2019-03-29T10:14:21.861Z,83.40
2019-03-29T10:16:50.328Z,84.10
2019-03-29T10:19:18.922Z,82.00
2019-03-29T10:21:47.493Z,82.10
2019-03-29T10:24:16.066Z,81.60
2019-03-29T10:26:44.613Z,79.70
2019-03-29T10:29:13.110Z,81.40
2019-03-29T10:31:41.614Z,82.00
2019-03-29T10:34:10.183Z,79.70
2019-03-29T10:36:38.675Z,76.80
2019-03-29T10:39:11.554Z,76.00
2019-03-29T10:41:40.038Z,77.10
2019-03-29T10:44:08.619Z,76.30
2019-03-29T10:46:37.095Z,75.50
2019-03-29T10:49:05.671Z,74.50
2019-03-29T10:51:34.142Z,76.40
2019-03-29T10:54:02.694Z,74.60
2019-03-29T10:56:34.315Z,71.60
2019-03-29T10:59:01.401Z,74.50
2019-03-29T11:01:29.979Z,73.90
2019-03-29T11:03:58.539Z,74.10
2019-03-29T11:06:27.402Z,73.60
2019-03-29T11:08:55.957Z,70.50
2019-03-29T11:11:24.533Z,71.60
2019-03-29T11:13:56.386Z,73.80
2019-03-29T11:16:23.483Z,73.50
2019-03-29T11:18:52.076Z,73.30
2019-03-29T11:21:20.673Z,74.50
2019-03-29T11:23:49.252Z,73.00
2019-03-29T11:26:17.874Z,72.80
2019-03-29T11:28:46.427Z,72.30
2019-03-29T11:31:15.004Z,73.50
2019-03-29T11:33:43.610Z,72.20
2019-03-29T11:36:12.236Z,69.80
2019-03-29T11:38:40.824Z,70.30
2019-03-29T11:41:09.330Z,70.00
2019-03-29T11:43:37.892Z,70.60
2019-03-29T11:46:06.435Z,70.40
2019-03-29T11:48:35.011Z,69.80
2019-03-29T11:51:03.479Z,68.00
2019-03-29T11:53:32.000Z,69.40
2019-03-29T11:56:00.517Z,68.80
2019-03-29T11:58:28.990Z,68.80
2019-03-29T12:00:57.498Z,68.80
2019-03-29T12:03:26.052Z,68.50
2019-03-29T12:05:54.542Z,68.30
2019-03-29T12:08:23.090Z,69.20
2019-03-29T12:10:51.673Z,69.80
2019-03-29T12:13:20.205Z,70.50
2019-03-29T12:15:48.854Z,69.80
2019-03-29T12:18:17.409Z,70.00
2019-03-29T12:20:45.967Z,70.30
2019-03-29T12:23:14.505Z,70.30
2019-03-29T12:25:43.034Z,71.10
2019-03-29T12:28:11.591Z,69.90
2019-03-29T12:30:40.106Z,69.60
2019-03-29T12:33:08.659Z,69.60
2019-03-29T12:35:37.318Z,68.80
2019-03-29T12:38:05.875Z,68.80
2019-03-29T12:40:34.454Z,69.40
2019-03-29T12:43:03.000Z,70.00
2019-03-29T12:45:31.848Z,70.60
2019-03-29T12:48:33.784Z,70.00
2019-03-29T12:51:02.331Z,69.00
2019-03-29T12:53:30.810Z,69.90
2019-03-29T12:55:59.409Z,70.70
2019-03-29T12:58:27.932Z,70.30
2019-03-29T13:00:56.457Z,69.40
2019-03-29T13:03:25.031Z,69.10
2019-03-29T13:05:53.636Z,70.00
2019-03-29T13:08:22.187Z,70.90
2019-03-29T13:10:50.833Z,69.90
2019-03-29T13:13:19.404Z,69.40
2019-03-29T13:15:47.977Z,70.00
2019-03-29T13:18:16.760Z,69.50
2019-03-29T13:20:45.352Z,69.40
2019-03-29T13:23:14.007Z,70.50
2019-03-29T13:25:42.662Z,69.90
2019-03-29T13:28:11.223Z,69.70
2019-03-29T13:30:39.840Z,69.80
2019-03-29T13:33:08.361Z,69.00
2019-03-29T13:35:36.883Z,69.00
2019-03-29T13:38:05.490Z,69.40
2019-03-29T13:40:34.107Z,67.50
2019-03-29T13:43:02.626Z,68.90
2019-03-29T13:45:31.319Z,68.30
2019-03-29T13:47:59.852Z,68.00
2019-03-29T13:50:28.450Z,68.20
2019-03-29T13:53:16.354Z,68.00
2019-03-29T13:55:44.931Z,67.20
2019-03-29T13:58:13.484Z,67.60
2019-03-29T14:00:42.016Z,67.60
2019-03-29T14:03:10.605Z,66.20
2019-03-29T14:05:41.271Z,66.70
2019-03-29T14:08:11.025Z,66.30
2019-03-29T14:10:40.238Z,66.80
2019-03-29T14:13:10.251Z,67.30
2019-03-29T14:15:39.688Z,66.60
2019-03-29T14:18:10.468Z,66.20
2019-03-29T14:20:40.694Z,66.70
2019-03-29T14:23:10.283Z,64.50
2019-03-29T14:25:39.637Z,64.90
2019-03-29T14:28:09.658Z,65.00
2019-03-29T14:30:39.743Z,65.90
2019-03-29T14:33:08.324Z,66.70
2019-03-29T14:35:36.923Z,65.70
2019-03-29T14:38:05.429Z,66.40
2019-03-29T14:40:34.209Z,64.30
2019-03-29T14:43:02.789Z,65.30
2019-03-29T14:45:31.343Z,65.50
2019-03-29T14:48:01.970Z,64.00
2019-03-29T14:50:31.024Z,66.20
2019-03-29T14:52:59.602Z,64.20
2019-03-29T14:55:28.148Z,65.10
2019-03-29T14:57:56.639Z,64.00
2019-03-29T15:00:39.341Z,64.40
2019-03-29T15:03:08.004Z,63.70
2019-03-29T15:05:36.730Z,64.10
2019-03-29T15:08:05.275Z,65.10
2019-03-29T15:10:33.842Z,64.30
2019-03-29T15:13:03.465Z,65.20
2019-03-29T15:15:31.963Z,64.30
2019-03-29T15:18:00.584Z,64.00
2019-03-29T15:20:29.152Z,62.80
2019-03-29T15:22:57.696Z,63.60
2019-03-29T15:25:26.201Z,63.50
2019-03-29T15:27:54.741Z,63.00
2019-03-29T15:30:23.267Z,63.80
2019-03-29T15:32:51.810Z,64.70
2019-03-29T15:35:21.019Z,64.50
2019-03-29T15:37:49.671Z,64.00
2019-03-29T15:40:18.289Z,64.90
2019-03-29T15:42:46.847Z,62.30
2019-03-29T15:45:20.668Z,63.40
2019-03-29T15:47:45.788Z,63.10
2019-03-29T15:50:15.763Z,62.90
2019-03-29T15:52:44.430Z,62.80
2019-03-29T15:55:13.088Z,63.70
2019-03-29T15:57:41.661Z,63.80
2019-03-29T16:00:11.349Z,63.70
2019-03-29T16:02:39.954Z,63.40
2019-03-29T16:05:08.641Z,63.80
2019-03-29T16:07:37.148Z,64.60
2019-03-29T16:10:06.558Z,64.20
2019-03-29T16:12:35.176Z,63.80
2019-03-29T16:15:05.166Z,64.00
2019-03-29T16:17:33.708Z,64.60
2019-03-29T16:20:06.747Z,64.50
2019-03-29T16:22:35.662Z,65.30
2019-03-29T16:25:08.481Z,65.90
2019-03-29T16:27:37.067Z,66.00
2019-03-29T16:30:07.442Z,66.00
2019-03-29T16:32:36.773Z,65.40
2019-03-29T16:35:07.601Z,65.30
2019-03-29T16:37:36.242Z,65.20
2019-03-29T16:40:06.903Z,65.30
2019-03-29T16:42:35.783Z,65.80
2019-03-29T16:45:06.400Z,65.50
2019-03-29T16:47:34.995Z,65.80
2019-03-29T16:50:05.438Z,66.00
2019-03-29T16:52:34.019Z,66.00
2019-03-29T16:55:12.961Z,66.10
2019-03-29T16:57:32.888Z,66.10
2019-03-29T17:00:01.538Z,65.80
2019-03-29T17:02:30.084Z,66.40
2019-03-29T17:04:58.662Z,66.00
2019-03-29T17:07:27.273Z,65.90
2019-03-29T17:09:55.876Z,65.80
2019-03-29T17:12:24.431Z,65.90
2019-03-29T17:14:53.031Z,66.40
2019-03-29T17:17:21.577Z,66.40
2019-03-29T17:19:50.171Z,66.80
2019-03-29T17:22:18.744Z,67.20
2019-03-29T17:24:56.856Z,66.80
2019-03-29T17:27:17.556Z,67.00
2019-03-29T17:29:46.137Z,67.30
2019-03-29T17:32:14.712Z,67.50
2019-03-29T17:34:43.321Z,67.70
2019-03-29T17:37:11.893Z,67.50
2019-03-29T17:39:40.492Z,67.30
2019-03-29T17:42:09.043Z,67.50
2019-03-29T17:44:37.642Z,67.70
2019-03-29T17:47:06.363Z,67.80
2019-03-29T17:49:34.958Z,68.00
2019-03-29T17:52:03.564Z,67.90
2019-03-29T17:54:32.159Z,68.70
2019-03-29T17:57:00.742Z,68.00
2019-03-29T17:59:29.329Z,68.10
2019-03-29T18:02:08.792Z,68.30
2019-03-29T18:04:28.214Z,68.30
2019-03-29T18:06:56.839Z,68.40
2019-03-29T18:09:25.412Z,68.30
2019-03-29T18:11:53.987Z,68.40
2019-03-29T18:14:22.619Z,68.40
2019-03-29T18:16:51.187Z,68.70
2019-03-29T18:19:19.779Z,68.80
2019-03-29T18:21:48.442Z,69.00
2019-03-29T18:24:17.071Z,69.30
2019-03-29T18:26:45.752Z,69.30
2019-03-29T18:29:14.414Z,69.40
2019-03-29T18:31:43.045Z,69.70
2019-03-29T18:34:11.688Z,70.00
2019-03-29T18:36:41.421Z,70.10
2019-03-29T18:39:10.146Z,71.00
2019-03-29T18:41:39.400Z,70.60
2019-03-29T18:44:08.051Z,70.70
2019-03-29T18:46:44.509Z,70.60
2019-03-29T18:49:07.031Z,70.60
2019-03-29T18:51:35.636Z,70.90
2019-03-29T18:54:04.320Z,71.00
2019-03-29T18:56:32.944Z,71.30
2019-03-29T18:59:01.517Z,71.40
2019-03-29T19:01:30.279Z,72.80
2019-03-29T19:04:00.650Z,73.20
2019-03-29T19:06:29.268Z,73.30
2019-03-29T19:08:59.479Z,73.40
2019-03-29T19:11:28.154Z,73.60
2019-03-29T19:13:57.817Z,73.90
2019-03-29T19:16:26.546Z,74.00
2019-03-29T19:19:09.148Z,74.40
2019-03-29T19:21:26.072Z,74.30
2019-03-29T19:23:54.814Z,74.60
2019-03-29T19:26:23.547Z,74.70
2019-03-29T19:28:52.170Z,74.90
2019-03-29T19:31:20.806Z,75.10
2019-03-29T19:33:49.471Z,75.70
2019-03-29T19:36:18.237Z,76.00
2019-03-29T19:38:46.865Z,76.40
2019-03-29T19:41:18.793Z,76.40
2019-03-29T19:43:47.531Z,76.60
2019-03-29T19:46:16.595Z,76.60
2019-03-29T19:48:45.415Z,76.60
2019-03-29T19:51:15.689Z,76.50
2019-03-29T19:53:45.686Z,76.80
2019-03-29T19:56:16.939Z,76.50
2019-03-29T19:58:45.669Z,77.30
2019-03-29T20:01:14.457Z,77.10
2019-03-29T20:03:45.400Z,77.60
2019-03-29T20:06:14.117Z,77.60
2019-03-29T20:08:43.506Z,77.40
2019-03-29T20:11:12.359Z,77.90
2019-03-29T20:13:41.378Z,78.10
2019-03-29T20:16:10.114Z,78.70
2019-03-29T20:18:38.808Z,78.50
2019-03-29T20:21:08.161Z,78.20
2019-03-29T20:23:38.921Z,78.40
2019-03-29T20:26:09.041Z,78.80
2019-03-29T20:28:38.722Z,78.90
2019-03-29T20:31:07.499Z,78.80
2019-03-29T20:33:36.205Z,78.90
2019-03-29T20:36:05.379Z,78.90
2019-03-29T20:38:35.635Z,79.20
2019-03-29T20:41:04.414Z,80.00
2019-03-29T20:43:33.157Z,80.20
2019-03-29T20:46:01.923Z,80.20
2019-03-29T20:48:30.626Z,80.00
2019-03-29T20:51:00.373Z,81.20
2019-03-29T20:53:29.031Z,81.60
2019-03-29T20:55:58.430Z,81.30
2019-03-29T20:58:27.167Z,81.40
2019-03-29T21:00:55.869Z,81.20
2019-03-29T21:03:24.677Z,81.10
2019-03-29T21:05:53.489Z,81.30
2019-03-29T21:08:22.237Z,81.70
2019-03-29T21:10:56.103Z,82.00
2019-03-29T21:13:21.739Z,81.20
2019-03-29T21:15:51.709Z,82.20
2019-03-29T21:18:20.543Z,82.30
2019-03-29T21:20:50.354Z,82.40
2019-03-29T21:23:19.241Z,82.60
2019-03-29T21:25:49.762Z,82.60
2019-03-29T21:28:18.407Z,82.50
2019-03-29T21:30:47.255Z,82.30
2019-03-29T21:33:15.897Z,82.10
2019-03-29T21:35:44.607Z,82.20
2019-03-29T21:38:13.329Z,82.00
2019-03-29T21:40:42.028Z,81.80
2019-03-29T21:43:10.773Z,82.20
2019-03-29T21:45:39.669Z,81.70
2019-03-29T21:48:27.498Z,82.10
2019-03-29T21:50:40.728Z,81.70
2019-03-29T21:53:09.318Z,81.60
2019-03-29T21:55:37.986Z,82.60
2019-03-29T21:58:09.646Z,81.70
2019-03-29T22:00:38.265Z,83.10
2019-03-29T22:03:06.961Z,82.20
2019-03-29T22:05:35.551Z,81.90
2019-03-29T22:08:04.689Z,82.80
2019-03-29T22:10:33.291Z,82.80
2019-03-29T22:13:01.914Z,82.90
2019-03-29T22:15:31.999Z,82.90
2019-03-29T22:18:00.639Z,82.90
2019-03-29T22:20:29.206Z,82.40
2019-03-29T22:22:57.800Z,82.30
2019-03-29T22:25:26.381Z,82.30
2019-03-29T22:27:54.986Z,82.70
2019-03-29T22:30:23.546Z,82.40
2019-03-29T22:32:52.157Z,82.80
2019-03-29T22:35:20.738Z,82.90
2019-03-29T22:37:49.282Z,83.00
2019-03-29T22:40:17.884Z,82.40
2019-03-29T22:42:46.423Z,82.30
2019-03-29T22:45:15.024Z,82.80
2019-03-29T22:47:43.591Z,83.00
2019-03-29T22:50:12.195Z,83.60
2019-03-29T22:52:40.758Z,82.80
2019-03-29T22:55:09.465Z,83.20
2019-03-29T22:57:38.043Z,83.90
2019-03-29T23:00:21.486Z,84.20
2019-03-29T23:02:50.148Z,83.90
2019-03-29T23:05:18.761Z,84.10
2019-03-29T23:07:47.326Z,83.50
2019-03-29T23:10:15.890Z,83.20
2019-03-29T23:12:44.472Z,83.20
2019-03-29T23:15:16.460Z,83.70
2019-03-29T23:17:45.030Z,84.20
2019-03-29T23:20:13.623Z,83.30
2019-03-29T23:22:42.114Z,83.30
2019-03-29T23:25:10.776Z,83.50
2019-03-29T23:27:39.336Z,83.40
2019-03-29T23:30:08.769Z,82.90
2019-03-29T23:32:37.308Z,83.40
2019-03-29T23:35:07.351Z,83.70
2019-03-29T23:37:35.920Z,83.80
2019-03-29T23:40:05.859Z,83.50
2019-03-29T23:42:34.404Z,83.50
2019-03-29T23:45:03.001Z,83.10
2019-03-29T23:47:31.536Z,83.30
2019-03-29T23:50:00.040Z,83.70
2019-03-29T23:52:28.617Z,83.90
2019-03-29T23:54:57.181Z,84.20
2019-03-29T23:57:25.652Z,83.70
2019-03-29T23:59:54.215Z,83.30
